Time;durP1;ratioP1;P1;durP2;ratioP2;P2;SDS_P1;SDS_P2;PMS_P1;PMS_P2;Temp;Humidity;BMP_temperature;BMP_pressure;BME280_temperature;BME280_humidity;BME280_pressure;Samples;Min_cycle;Max_cycle;Signal;HPM_P1;HPM_P2
2021/10/31 00:02:25;;;;;;;19.90;15.33;;;;;;;;;;4922547;29;20289;-87
2021/10/31 00:05:29;;;;;;;21.73;16.03;;;;;;;;;;4925426;29;20585;-87
2021/10/31 00:08:33;;;;;;;21.70;16.13;;;;;;;;;;4933553;29;20208;-87
2021/10/31 00:11:38;;;;;;;24.63;15.63;;;;;;;;;;4939043;29;20227;-87
2021/10/31 00:14:42;;;;;;;20.80;15.23;;;;;;;;;;4928839;29;20204;-87
2021/10/31 00:17:47;;;;;;;21.00;15.63;;;;;;;;;;4934075;29;20207;-88
2021/10/31 00:20:52;;;;;;;20.17;14.93;;;;;;;;;;4929650;29;20239;-88
2021/10/31 00:23:56;;;;;;;19.23;15.57;;;;;;;;;;4958312;29;20188;-88
2021/10/31 00:26:59;;;;;;;25.20;15.90;;;;;;;;;;4956022;29;20200;-87
2021/10/31 00:30:04;;;;;;;22.10;15.73;;;;;;;;;;4928932;29;20263;-87
2021/10/31 00:33:08;;;;;;;24.33;16.10;;;;;;;;;;4939248;29;20203;-87
2021/10/31 00:36:12;;;;;;;19.53;14.60;;;;;;;;;;4955450;29;20219;-88
2021/10/31 00:39:16;;;;;;;20.07;14.70;;;;;;;;;;4924633;29;20216;-87
2021/10/31 00:42:21;;;;;;;22.97;15.53;;;;;;;;;;4950139;29;20587;-88
2021/10/31 00:45:28;;;;;;;24.00;14.57;;;;;;;;;;4930276;29;20195;-88
2021/10/31 00:48:32;;;;;;;23.93;16.07;;;;;;;;;;4943310;29;20215;-88
2021/10/31 00:51:37;;;;;;;21.00;15.47;;;;;;;;;;4934847;29;20246;-87
2021/10/31 00:54:41;;;;;;;19.70;15.20;;;;;;;;;;4942030;29;20207;-87
2021/10/31 00:57:46;;;;;;;20.93;14.87;;;;;;;;;;4916147;29;20648;-87
2021/10/31 01:00:51;;;;;;;24.67;16.33;;;;;;;;;;4924685;29;20212;-87
2021/10/31 01:03:58;;;;;;;24.43;16.90;;;;;;;;;;4916084;29;20176;-87
2021/10/31 01:07:24;;;;;;;22.50;16.63;;;;;;;;;;4937243;29;20215;-88
2021/10/31 01:10:57;;;;;;;22.00;15.33;;;;;;;;;;4936953;29;20218;-88
2021/10/31 01:14:37;;;;;;;23.87;15.93;;;;;;;;;;4957411;29;20199;-87
2021/10/31 01:18:05;;;;;;;22.70;15.17;;;;;;;;;;4922127;29;20218;-87
2021/10/31 01:21:48;;;;;;;24.57;16.80;;;;;;;;;;4942594;29;20749;-88
2021/10/31 01:25:10;;;;;;;19.53;14.27;;;;;;;;;;4935249;29;20203;-87
2021/10/31 01:28:35;;;;;;;20.80;15.07;;;;;;;;;;4946456;29;20201;-87
2021/10/31 01:32:23;;;;;;;18.67;14.27;;;;;;;;;;4934941;29;20240;-87
2021/10/31 01:35:48;;;;;;;22.07;14.93;;;;;;;;;;4946453;29;20192;-88
2021/10/31 01:39:17;;;;;;;24.97;15.53;;;;;;;;;;4922842;29;20212;-88
2021/10/31 01:42:26;;;;;;;25.37;17.40;;;;;;;;;;4926766;29;20234;-88
2021/10/31 01:45:42;;;;;;;25.07;16.50;;;;;;;;;;4915707;29;20678;-88
2021/10/31 01:48:58;;;;;;;23.63;16.50;;;;;;;;;;4916647;29;20192;-87
2021/10/31 01:52:11;;;;;;;23.67;16.13;;;;;;;;;;4932699;29;20226;-87
2021/10/31 01:55:22;;;;;;;24.60;16.93;;;;;;;;;;4942174;29;20223;-88
2021/10/31 01:58:32;;;;;;;26.10;16.93;;;;;;;;;;4955398;29;20707;-88
2021/10/31 02:01:38;;;;;;;26.33;17.90;;;;;;;;;;4935197;29;20232;-88
2021/10/31 02:04:45;;;;;;;25.43;16.60;;;;;;;;;;4935176;29;20195;-88
2021/10/31 02:07:52;;;;;;;26.97;17.43;;;;;;;;;;4933434;29;20205;-87
2021/10/31 02:10:57;;;;;;;26.03;17.30;;;;;;;;;;4933297;29;20248;-88
2021/10/31 02:14:03;;;;;;;28.47;18.43;;;;;;;;;;4938367;29;20184;-88
2021/10/31 02:17:08;;;;;;;30.40;19.97;;;;;;;;;;4930430;29;20207;-87
2021/10/31 02:20:14;;;;;;;26.27;18.00;;;;;;;;;;4923473;29;20258;-88
2021/10/31 02:23:19;;;;;;;24.77;17.63;;;;;;;;;;4945481;29;20678;-87
2021/10/31 02:26:23;;;;;;;28.03;18.10;;;;;;;;;;4944061;29;20260;-87
2021/10/31 02:29:28;;;;;;;25.27;17.00;;;;;;;;;;4918828;29;20211;-88
2021/10/31 02:32:32;;;;;;;24.97;17.93;;;;;;;;;;4924079;29;20748;-88
2021/10/31 02:35:38;;;;;;;24.73;18.00;;;;;;;;;;4945182;29;20564;-88
2021/10/31 02:38:43;;;;;;;24.07;17.00;;;;;;;;;;4922084;29;20208;-87
2021/10/31 02:41:47;;;;;;;25.33;17.77;;;;;;;;;;4923400;29;20226;-87
2021/10/31 02:44:51;;;;;;;29.07;19.07;;;;;;;;;;4944722;29;20212;-87
2021/10/31 02:47:59;;;;;;;27.73;18.80;;;;;;;;;;4922775;29;20208;-87
2021/10/31 02:51:12;;;;;;;27.33;18.73;;;;;;;;;;4931059;29;20240;-88
2021/10/31 02:54:26;;;;;;;26.80;18.43;;;;;;;;;;4956200;29;20207;-87
2021/10/31 02:57:39;;;;;;;28.07;17.63;;;;;;;;;;4945317;29;20188;-88
2021/10/31 03:00:45;;;;;;;26.80;18.83;;;;;;;;;;4939612;29;20233;-87
2021/10/31 03:03:52;;;;;;;25.10;17.77;;;;;;;;;;4936472;29;20586;-87
2021/10/31 03:06:56;;;;;;;31.17;18.10;;;;;;;;;;4957044;29;20200;-87
2021/10/31 03:10:00;;;;;;;24.70;17.13;;;;;;;;;;4922712;29;20207;-88
2021/10/31 03:13:05;;;;;;;29.13;17.87;;;;;;;;;;4932577;29;20204;-88
2021/10/31 03:16:09;;;;;;;26.07;17.47;;;;;;;;;;4944532;29;20556;-87
2021/10/31 03:19:14;;;;;;;21.30;16.30;;;;;;;;;;4922899;29;20218;-88
2021/10/31 03:22:18;;;;;;;25.23;16.07;;;;;;;;;;4946785;29;20737;-87
2021/10/31 03:25:22;;;;;;;23.13;15.87;;;;;;;;;;4936158;29;20218;-88
2021/10/31 03:28:27;;;;;;;21.77;15.67;;;;;;;;;;4922433;29;20200;-88
2021/10/31 03:31:31;;;;;;;22.07;16.10;;;;;;;;;;4927880;29;20597;-87
2021/10/31 03:34:35;;;;;;;22.27;16.43;;;;;;;;;;4927713;29;20199;-87
2021/10/31 03:37:39;;;;;;;22.07;14.93;;;;;;;;;;4928613;29;20225;-88
2021/10/31 03:40:43;;;;;;;25.53;17.53;;;;;;;;;;4945591;29;20233;-87
2021/10/31 03:43:47;;;;;;;28.57;19.33;;;;;;;;;;4957368;29;20574;-88
2021/10/31 03:46:52;;;;;;;26.10;16.83;;;;;;;;;;4924526;29;20209;-87
2021/10/31 03:49:56;;;;;;;27.13;18.20;;;;;;;;;;4916623;29;20680;-87
2021/10/31 03:53:00;;;;;;;25.37;16.87;;;;;;;;;;4937812;29;20209;-88
2021/10/31 03:56:04;;;;;;;26.73;16.40;;;;;;;;;;4927541;29;20204;-87
2021/10/31 03:59:08;;;;;;;31.20;18.17;;;;;;;;;;4916717;29;20579;-87
2021/10/31 04:02:12;;;;;;;29.53;19.43;;;;;;;;;;4937724;29;20709;-87
2021/10/31 04:05:16;;;;;;;30.90;20.20;;;;;;;;;;4914254;29;20211;-87
2021/10/31 04:08:21;;;;;;;34.20;22.40;;;;;;;;;;4926994;29;20208;-88
2021/10/31 04:11:25;;;;;;;35.97;23.30;;;;;;;;;;4934532;29;20239;-87
2021/10/31 04:14:30;;;;;;;36.07;24.47;;;;;;;;;;4935232;29;20199;-87
2021/10/31 04:17:34;;;;;;;34.00;23.10;;;;;;;;;;4924129;29;20551;-87
2021/10/31 04:20:38;;;;;;;36.93;23.20;;;;;;;;;;4923990;29;20296;-87
2021/10/31 04:23:42;;;;;;;37.93;23.60;;;;;;;;;;4945437;29;20682;-87
2021/10/31 04:26:46;;;;;;;36.03;23.00;;;;;;;;;;4954830;29;20203;-87
2021/10/31 04:29:51;;;;;;;34.67;21.97;;;;;;;;;;4923528;29;20210;-88
2021/10/31 04:32:55;;;;;;;34.70;21.83;;;;;;;;;;4922111;29;20199;-87
2021/10/31 04:35:59;;;;;;;31.90;21.67;;;;;;;;;;4937645;29;20201;-87
2021/10/31 04:39:06;;;;;;;36.67;21.47;;;;;;;;;;4933792;29;20203;-88
2021/10/31 04:42:10;;;;;;;30.60;20.53;;;;;;;;;;4934474;29;20218;-88
2021/10/31 04:45:14;;;;;;;28.07;20.03;;;;;;;;;;4939651;29;20199;-88
2021/10/31 04:48:21;;;;;;;33.20;21.93;;;;;;;;;;4934227;29;20195;-88
2021/10/31 04:51:25;;;;;;;31.50;21.27;;;;;;;;;;4934401;29;20600;-88
2021/10/31 04:54:31;;;;;;;28.87;19.93;;;;;;;;;;4925550;29;20219;-87
2021/10/31 04:57:35;;;;;;;27.17;19.43;;;;;;;;;;4934123;29;20215;-88
2021/10/31 05:00:39;;;;;;;30.37;19.17;;;;;;;;;;4943560;29;20219;-87
2021/10/31 05:03:44;;;;;;;32.20;19.57;;;;;;;;;;4924170;29;20686;-87
2021/10/31 05:06:49;;;;;;;32.23;19.90;;;;;;;;;;4923430;29;20191;-87
2021/10/31 05:09:53;;;;;;;28.43;20.30;;;;;;;;;;4944496;29;20566;-87
2021/10/31 05:12:57;;;;;;;26.23;18.73;;;;;;;;;;4944037;29;20294;-87
2021/10/31 05:16:01;;;;;;;32.80;19.50;;;;;;;;;;4933800;29;20203;-87
2021/10/31 05:19:08;;;;;;;29.50;18.20;;;;;;;;;;4955177;29;20574;-87
2021/10/31 05:22:12;;;;;;;25.03;17.97;;;;;;;;;;4925612;29;20234;-87
2021/10/31 05:25:16;;;;;;;25.77;17.40;;;;;;;;;;5043988;23;20241;-86
2021/10/31 05:28:20;;;;;;;27.17;17.07;;;;;;;;;;4994560;28;20194;-88
2021/10/31 05:31:25;;;;;;;26.23;18.00;;;;;;;;;;4959270;28;20207;-86
2021/10/31 05:34:29;;;;;;;25.13;17.77;;;;;;;;;;4980061;28;20617;-89
2021/10/31 05:37:36;;;;;;;24.43;17.40;;;;;;;;;;4965124;28;20660;-86
2021/10/31 05:40:41;;;;;;;22.97;17.33;;;;;;;;;;4964299;28;20202;-88
2021/10/31 05:43:45;;;;;;;26.33;18.13;;;;;;;;;;4942043;28;20221;-88
2021/10/31 05:46:49;;;;;;;26.40;18.37;;;;;;;;;;4975162;28;20534;-88
2021/10/31 05:49:53;;;;;;;27.20;18.13;;;;;;;;;;4963985;28;20191;-86
2021/10/31 05:52:57;;;;;;;27.97;19.17;;;;;;;;;;4963484;28;20218;-89
2021/10/31 05:56:02;;;;;;;25.43;18.07;;;;;;;;;;4975001;28;20198;-88
2021/10/31 05:59:06;;;;;;;21.70;16.60;;;;;;;;;;4944629;29;20668;-88
2021/10/31 06:02:10;;;;;;;26.13;17.43;;;;;;;;;;4945078;29;20188;-88
2021/10/31 06:05:16;;;;;;;23.13;15.63;;;;;;;;;;4962739;28;20724;-88
2021/10/31 06:08:20;;;;;;;26.20;17.73;;;;;;;;;;4963327;28;20681;-87
2021/10/31 06:11:24;;;;;;;27.63;18.87;;;;;;;;;;4964628;28;20219;-87
2021/10/31 06:14:28;;;;;;;25.97;18.13;;;;;;;;;;4951876;28;20229;-87
2021/10/31 06:17:34;;;;;;;28.93;17.93;;;;;;;;;;4963391;28;20192;-87
2021/10/31 06:20:38;;;;;;;28.37;18.80;;;;;;;;;;4933500;29;20195;-86
2021/10/31 06:23:42;;;;;;;27.93;18.33;;;;;;;;;;4950714;28;20226;-87
2021/10/31 06:26:46;;;;;;;26.97;18.67;;;;;;;;;;4962293;28;20558;-87
2021/10/31 06:29:50;;;;;;;29.90;19.23;;;;;;;;;;4961142;28;20192;-88
2021/10/31 06:32:54;;;;;;;26.80;18.27;;;;;;;;;;4951010;28;20227;-88
2021/10/31 06:35:58;;;;;;;28.80;18.50;;;;;;;;;;4963013;28;20202;-87
2021/10/31 06:39:03;;;;;;;24.77;17.13;;;;;;;;;;4952342;28;20657;-87
2021/10/31 06:42:07;;;;;;;28.57;17.47;;;;;;;;;;4951453;28;20202;-86
2021/10/31 06:45:11;;;;;;;23.73;16.93;;;;;;;;;;4943512;28;20311;-87
2021/10/31 06:48:15;;;;;;;25.20;17.90;;;;;;;;;;4944093;28;20214;-87
2021/10/31 06:51:20;;;;;;;23.37;16.77;;;;;;;;;;4958464;28;20210;-87
2021/10/31 06:54:24;;;;;;;31.73;20.37;;;;;;;;;;4973589;28;20722;-87
2021/10/31 06:57:28;;;;;;;23.77;16.67;;;;;;;;;;4959376;28;20198;-85
2021/10/31 07:00:32;;;;;;;26.73;17.47;;;;;;;;;;4963668;28;20251;-84
2021/10/31 07:03:37;;;;;;;24.40;17.03;;;;;;;;;;4948903;28;20221;-84
2021/10/31 07:06:41;;;;;;;25.90;17.30;;;;;;;;;;4953044;28;20205;-84
2021/10/31 07:09:45;;;;;;;27.47;17.33;;;;;;;;;;4964710;28;20198;-85
2021/10/31 07:12:50;;;;;;;25.77;18.23;;;;;;;;;;4975276;28;20217;-85
2021/10/31 07:15:54;;;;;;;26.63;18.27;;;;;;;;;;4963496;28;20213;-85
2021/10/31 07:18:58;;;;;;;31.10;20.63;;;;;;;;;;4975040;28;20211;-86
2021/10/31 07:22:03;;;;;;;23.97;17.23;;;;;;;;;;4964530;28;20190;-84
2021/10/31 07:25:08;;;;;;;27.03;18.87;;;;;;;;;;4963887;28;20249;-84
2021/10/31 07:28:13;;;;;;;25.40;18.50;;;;;;;;;;4963653;28;20198;-84
2021/10/31 07:31:19;;;;;;;36.47;23.53;;;;;;;;;;4975907;28;20206;-85
2021/10/31 07:34:26;;;;;;;35.27;22.20;;;;;;;;;;4952022;28;20713;-85
2021/10/31 07:37:30;;;;;;;33.97;22.40;;;;;;;;;;4963958;28;20206;-84
2021/10/31 07:40:34;;;;;;;30.30;18.97;;;;;;;;;;4955052;29;20234;-85
2021/10/31 07:43:39;;;;;;;28.77;20.83;;;;;;;;;;4944788;29;20234;-86
2021/10/31 07:46:43;;;;;;;32.73;22.33;;;;;;;;;;4961627;28;20237;-86
2021/10/31 07:49:47;;;;;;;33.83;23.83;;;;;;;;;;4961547;28;20218;-85
2021/10/31 07:52:51;;;;;;;28.33;20.47;;;;;;;;;;4942859;29;20226;-86
2021/10/31 07:55:56;;;;;;;28.53;19.17;;;;;;;;;;4961499;28;20206;-85
2021/10/31 07:59:00;;;;;;;32.03;22.40;;;;;;;;;;4945740;28;20198;-87
2021/10/31 08:02:05;;;;;;;34.00;23.73;;;;;;;;;;4949530;28;20193;-85
2021/10/31 08:05:09;;;;;;;31.53;22.83;;;;;;;;;;4953600;28;20235;-86
2021/10/31 08:08:14;;;;;;;29.03;21.70;;;;;;;;;;4976059;28;20198;-87
2021/10/31 08:11:18;;;;;;;26.40;19.87;;;;;;;;;;4953588;28;20194;-87
2021/10/31 08:14:23;;;;;;;26.33;18.60;;;;;;;;;;4982328;28;20223;-88
2021/10/31 08:17:27;;;;;;;27.70;18.73;;;;;;;;;;4968163;28;20194;-88
2021/10/31 08:20:32;;;;;;;22.67;18.13;;;;;;;;;;4948215;29;20194;-88
2021/10/31 08:23:36;;;;;;;23.43;17.30;;;;;;;;;;4925513;29;20239;-88
2021/10/31 08:26:40;;;;;;;22.00;16.93;;;;;;;;;;4935684;29;20203;-86
2021/10/31 08:29:46;;;;;;;25.20;18.23;;;;;;;;;;4946083;29;20199;-86
2021/10/31 08:32:51;;;;;;;23.40;17.97;;;;;;;;;;4945820;29;20222;-86
2021/10/31 08:36:01;;;;;;;22.43;17.47;;;;;;;;;;4946122;29;20546;-86
2021/10/31 08:39:08;;;;;;;22.90;17.83;;;;;;;;;;4946121;29;20199;-87
2021/10/31 08:42:14;;;;;;;23.40;18.30;;;;;;;;;;4947929;28;20194;-87
2021/10/31 08:45:27;;;;;;;23.27;17.83;;;;;;;;;;4936337;28;20725;-88
2021/10/31 08:48:40;;;;;;;25.97;18.43;;;;;;;;;;4957626;28;20198;-87
2021/10/31 08:51:46;;;;;;;26.03;18.50;;;;;;;;;;4954604;28;20202;-87
2021/10/31 08:54:50;;;;;;;26.30;17.97;;;;;;;;;;4953779;28;20219;-87
2021/10/31 08:57:57;;;;;;;22.53;17.47;;;;;;;;;;4966286;28;20194;-86
2021/10/31 09:01:09;;;;;;;19.53;15.40;;;;;;;;;;4953489;28;20197;-86
2021/10/31 09:04:13;;;;;;;19.73;15.40;;;;;;;;;;4978718;28;20712;-86
2021/10/31 09:07:17;;;;;;;18.30;14.30;;;;;;;;;;4967080;28;20198;-87
2021/10/31 09:10:24;;;;;;;22.40;15.93;;;;;;;;;;4958455;28;20206;-86
2021/10/31 09:13:28;;;;;;;21.17;16.90;;;;;;;;;;4957351;23;20216;-77
2021/10/31 09:16:34;;;;;;;21.80;15.03;;;;;;;;;;5006071;28;20207;-77
2021/10/31 09:19:38;;;;;;;22.50;16.87;;;;;;;;;;5002062;28;20193;-77
2021/10/31 09:22:42;;;;;;;20.83;16.30;;;;;;;;;;4990510;28;20205;-77
2021/10/31 09:25:46;;;;;;;18.33;15.30;;;;;;;;;;4990870;28;20196;-77
2021/10/31 09:28:51;;;;;;;18.13;14.67;;;;;;;;;;4973404;28;20189;-77
2021/10/31 09:31:56;;;;;;;19.17;14.17;;;;;;;;;;5013603;28;20232;-78
2021/10/31 09:35:02;;;;;;;18.30;13.70;;;;;;;;;;4998326;28;20205;-78
2021/10/31 09:38:06;;;;;;;17.17;13.60;;;;;;;;;;4992674;28;20188;-78
2021/10/31 09:41:13;;;;;;;15.43;13.17;;;;;;;;;;4992117;28;20229;-78
2021/10/31 09:44:28;;;;;;;13.23;11.00;;;;;;;;;;4973631;28;20221;-77
2021/10/31 09:47:32;;;;;;;13.80;11.03;;;;;;;;;;4984001;28;20564;-77
2021/10/31 09:50:47;;;;;;;13.53;10.23;;;;;;;;;;5006483;28;20294;-77
2021/10/31 09:53:52;;;;;;;12.03;8.97;;;;;;;;;;4982677;28;20699;-77
2021/10/31 09:56:57;;;;;;;9.93;7.70;;;;;;;;;;4973717;28;20213;-77
2021/10/31 10:00:01;;;;;;;9.50;7.77;;;;;;;;;;4995650;28;20193;-77
2021/10/31 10:03:23;;;;;;;11.60;7.30;;;;;;;;;;4983386;28;20518;-77
2021/10/31 10:06:28;;;;;;;9.57;7.57;;;;;;;;;;4982651;28;20195;-77
2021/10/31 10:09:33;;;;;;;9.07;7.03;;;;;;;;;;4993411;28;20193;-77
2021/10/31 10:12:37;;;;;;;11.47;7.57;;;;;;;;;;4972189;28;20230;-78
2021/10/31 10:15:42;;;;;;;7.60;6.53;;;;;;;;;;4996316;28;20189;-78
2021/10/31 10:18:46;;;;;;;9.50;6.57;;;;;;;;;;4995448;28;20190;-78
2021/10/31 10:22:01;;;;;;;7.73;5.73;;;;;;;;;;4972267;28;20230;-77
2021/10/31 10:25:05;;;;;;;7.27;5.83;;;;;;;;;;5000366;28;20193;-77
2021/10/31 10:28:23;;;;;;;9.17;6.83;;;;;;;;;;4986352;28;20197;-79
2021/10/31 10:31:28;;;;;;;8.37;5.37;;;;;;;;;;5007073;28;20230;-78
2021/10/31 10:34:37;;;;;;;6.57;5.40;;;;;;;;;;4972935;28;20217;-78
2021/10/31 10:37:43;;;;;;;7.97;6.43;;;;;;;;;;4971936;28;20649;-78
2021/10/31 10:40:47;;;;;;;8.30;6.67;;;;;;;;;;4995366;28;20217;-77
2021/10/31 10:43:51;;;;;;;7.83;6.43;;;;;;;;;;4981844;28;20185;-77
2021/10/31 10:47:02;;;;;;;10.07;7.03;;;;;;;;;;5014760;28;20637;-77
2021/10/31 10:50:18;;;;;;;7.33;6.43;;;;;;;;;;5002763;28;20205;-77
2021/10/31 10:53:24;;;;;;;9.60;7.47;;;;;;;;;;5014892;28;20225;-78
2021/10/31 10:56:28;;;;;;;8.53;6.77;;;;;;;;;;5013401;28;20209;-78
2021/10/31 10:59:34;;;;;;;8.87;7.53;;;;;;;;;;4983754;28;20186;-78
2021/10/31 11:02:39;;;;;;;8.20;6.93;;;;;;;;;;4989308;28;20225;-78
2021/10/31 11:05:44;;;;;;;8.70;7.00;;;;;;;;;;4977492;28;20542;-77
2021/10/31 11:08:48;;;;;;;8.70;6.57;;;;;;;;;;4996832;28;20213;-77
2021/10/31 11:11:52;;;;;;;9.23;7.63;;;;;;;;;;5008948;28;20225;-78
2021/10/31 11:15:01;;;;;;;10.77;7.67;;;;;;;;;;4995806;28;20609;-77
2021/10/31 11:18:07;;;;;;;7.70;6.73;;;;;;;;;;4983624;28;20569;-77
2021/10/31 11:21:12;;;;;;;9.33;7.50;;;;;;;;;;5002202;28;20229;-76
2021/10/31 11:24:17;;;;;;;10.37;7.50;;;;;;;;;;4991623;28;20185;-78
2021/10/31 11:27:24;;;;;;;11.37;7.00;;;;;;;;;;4981745;28;20190;-78
2021/10/31 11:30:30;;;;;;;14.37;8.20;;;;;;;;;;4988269;28;20200;-77
2021/10/31 11:33:35;;;;;;;10.03;7.00;;;;;;;;;;5000639;28;20221;-77
2021/10/31 11:36:39;;;;;;;7.53;6.20;;;;;;;;;;4966207;28;20209;-78
2021/10/31 11:39:44;;;;;;;9.23;6.93;;;;;;;;;;4989435;28;20660;-77
2021/10/31 11:42:49;;;;;;;9.90;7.13;;;;;;;;;;4994198;28;20202;-78
2021/10/31 11:45:55;;;;;;;9.30;7.27;;;;;;;;;;5004731;28;20185;-77
2021/10/31 11:49:00;;;;;;;9.10;7.23;;;;;;;;;;4986036;28;20198;-77
2021/10/31 11:52:05;;;;;;;9.60;7.23;;;;;;;;;;4985002;28;20225;-77
2021/10/31 11:55:41;;;;;;;9.07;7.30;;;;;;;;;;4986193;28;20542;-76
2021/10/31 11:59:14;;;;;;;8.90;6.87;;;;;;;;;;4999984;28;20190;-78
2021/10/31 12:02:32;;;;;;;8.67;6.57;;;;;;;;;;4975289;28;20217;-78
2021/10/31 12:05:41;;;;;;;8.83;6.90;;;;;;;;;;4980896;28;20213;-78
2021/10/31 12:08:53;;;;;;;8.30;7.23;;;;;;;;;;5017794;28;20652;-78
2021/10/31 12:11:57;;;;;;;9.70;7.97;;;;;;;;;;4988804;28;20229;-78
2021/10/31 12:15:02;;;;;;;9.20;7.53;;;;;;;;;;5016785;28;20573;-77
2021/10/31 12:18:08;;;;;;;9.20;7.37;;;;;;;;;;4992861;28;20209;-77
2021/10/31 12:21:33;;;;;;;11.63;7.20;;;;;;;;;;4984282;28;20225;-78
2021/10/31 12:24:41;;;;;;;10.30;8.03;;;;;;;;;;4996628;28;20545;-78
2021/10/31 12:27:48;;;;;;;10.47;7.60;;;;;;;;;;4990195;28;20202;-77
2021/10/31 12:30:53;;;;;;;12.97;7.47;;;;;;;;;;4990267;28;20221;-78
2021/10/31 12:34:16;;;;;;;8.40;7.00;;;;;;;;;;4988858;28;20221;-78
2021/10/31 12:37:26;;;;;;;9.23;6.87;;;;;;;;;;4999893;28;20209;-77
2021/10/31 12:41:21;;;;;;;12.00;7.20;;;;;;;;;;4994972;28;20225;-78
2021/10/31 12:44:33;;;;;;;8.97;7.10;;;;;;;;;;4997024;28;20206;-78
2021/10/31 12:48:09;;;;;;;9.93;6.90;;;;;;;;;;4995828;28;20502;-78
2021/10/31 12:51:40;;;;;;;9.70;7.40;;;;;;;;;;4989704;28;20225;-77
2021/10/31 12:54:54;;;;;;;10.47;7.87;;;;;;;;;;4995998;28;20668;-78
2021/10/31 12:57:58;;;;;;;9.33;7.53;;;;;;;;;;4984632;28;20191;-78
2021/10/31 13:01:02;;;;;;;12.87;8.40;;;;;;;;;;4997399;28;20581;-77
2021/10/31 13:04:07;;;;;;;9.40;7.60;;;;;;;;;;5004788;28;20182;-78
2021/10/31 13:07:11;;;;;;;10.53;8.17;;;;;;;;;;4991303;28;20213;-79
2021/10/31 13:10:26;;;;;;;10.40;8.03;;;;;;;;;;4991670;28;20206;-78
2021/10/31 13:13:30;;;;;;;9.97;7.63;;;;;;;;;;5003364;28;20236;-78
2021/10/31 13:16:35;;;;;;;10.00;7.07;;;;;;;;;;5026686;28;20201;-79
2021/10/31 13:19:40;;;;;;;10.33;7.67;;;;;;;;;;4984318;28;20210;-78
2021/10/31 13:22:48;;;;;;;8.07;6.87;;;;;;;;;;4991895;28;20197;-79
2021/10/31 13:25:58;;;;;;;9.60;7.70;;;;;;;;;;5003728;28;20659;-79
2021/10/31 13:29:02;;;;;;;9.10;7.50;;;;;;;;;;4989380;28;20194;-78
2021/10/31 13:32:19;;;;;;;8.60;7.20;;;;;;;;;;4989880;28;20225;-79
2021/10/31 13:35:24;;;;;;;11.13;8.00;;;;;;;;;;4985112;28;20214;-77
2021/10/31 13:38:28;;;;;;;8.77;7.03;;;;;;;;;;4982805;28;20221;-76
2021/10/31 13:41:37;;;;;;;8.33;7.20;;;;;;;;;;4982639;28;20225;-77
2021/10/31 13:44:44;;;;;;;8.07;6.80;;;;;;;;;;4995700;28;20198;-76
2021/10/31 13:47:54;;;;;;;7.97;6.07;;;;;;;;;;4982433;28;20202;-76
2021/10/31 13:50:58;;;;;;;7.07;6.20;;;;;;;;;;4994714;28;20688;-77
2021/10/31 13:54:02;;;;;;;8.07;5.83;;;;;;;;;;4982266;28;20214;-76
2021/10/31 13:57:06;;;;;;;9.30;6.50;;;;;;;;;;4983003;28;20190;-76
2021/10/31 14:00:17;;;;;;;15.27;5.97;;;;;;;;;;4993334;28;20174;-76
2021/10/31 14:03:22;;;;;;;8.87;5.53;;;;;;;;;;4982117;28;20198;-76
2021/10/31 14:06:29;;;;;;;6.93;5.83;;;;;;;;;;4982051;28;20186;-76
2021/10/31 14:09:42;;;;;;;9.57;5.83;;;;;;;;;;4982155;28;20210;-75
2021/10/31 14:12:47;;;;;;;8.73;5.70;;;;;;;;;;4993901;28;20186;-76
2021/10/31 14:15:51;;;;;;;7.37;6.27;;;;;;;;;;4982249;28;20523;-76
2021/10/31 14:19:15;;;;;;;9.90;6.07;;;;;;;;;;4994043;28;20190;-75
2021/10/31 14:22:22;;;;;;;8.37;6.07;;;;;;;;;;4982073;28;20226;-76
2021/10/31 14:25:28;;;;;;;7.47;5.83;;;;;;;;;;4993994;28;20193;-76
2021/10/31 14:28:38;;;;;;;6.73;5.67;;;;;;;;;;4993941;28;20210;-76
2021/10/31 14:31:51;;;;;;;8.07;5.70;;;;;;;;;;4994216;28;20221;-76
2021/10/31 14:34:56;;;;;;;8.60;5.70;;;;;;;;;;4981983;28;20696;-76
2021/10/31 14:38:02;;;;;;;6.37;5.33;;;;;;;;;;4993710;28;20194;-75
2021/10/31 14:41:17;;;;;;;8.13;5.63;;;;;;;;;;4994152;28;20218;-75
2021/10/31 14:44:21;;;;;;;9.50;6.27;;;;;;;;;;4993847;28;20194;-75
2021/10/31 14:47:28;;;;;;;7.97;5.70;;;;;;;;;;4993864;28;20186;-75
2021/10/31 14:50:37;;;;;;;9.20;5.87;;;;;;;;;;4993891;28;20538;-75
2021/10/31 14:53:52;;;;;;;8.83;5.70;;;;;;;;;;4993734;28;20657;-75
2021/10/31 14:57:05;;;;;;;11.83;5.90;;;;;;;;;;4982157;28;20191;-75
2021/10/31 15:00:13;;;;;;;8.07;5.73;;;;;;;;;;4993525;28;20211;-75
2021/10/31 15:03:20;;;;;;;6.93;5.33;;;;;;;;;;4993470;28;20191;-76
2021/10/31 15:06:24;;;;;;;6.37;5.30;;;;;;;;;;4993742;28;20183;-75
2021/10/31 15:09:28;;;;;;;7.47;5.50;;;;;;;;;;4981587;28;20182;-75
2021/10/31 15:12:33;;;;;;;9.27;5.97;;;;;;;;;;4993255;28;20225;-76
2021/10/31 15:15:37;;;;;;;11.10;5.60;;;;;;;;;;4981605;28;20554;-75
2021/10/31 15:18:41;;;;;;;8.50;4.87;;;;;;;;;;4985438;28;20189;-75
2021/10/31 15:21:45;;;;;;;6.00;5.33;;;;;;;;;;4985219;28;20222;-75
2021/10/31 15:24:50;;;;;;;8.13;5.27;;;;;;;;;;4996366;28;20202;-75
2021/10/31 15:27:54;;;;;;;6.93;5.40;;;;;;;;;;4974315;28;20206;-75
2021/10/31 15:30:58;;;;;;;5.80;5.10;;;;;;;;;;4985393;28;20218;-76
2021/10/31 15:34:02;;;;;;;7.37;5.70;;;;;;;;;;4995294;28;20214;-76
2021/10/31 15:37:07;;;;;;;8.93;5.27;;;;;;;;;;5001344;28;20201;-75
2021/10/31 15:40:11;;;;;;;7.00;4.70;;;;;;;;;;4995825;28;20210;-75
2021/10/31 15:43:16;;;;;;;8.57;5.23;;;;;;;;;;4995736;28;20201;-75
2021/10/31 15:46:21;;;;;;;8.17;6.20;;;;;;;;;;5003116;28;20189;-75
2021/10/31 15:49:26;;;;;;;9.83;5.50;;;;;;;;;;5012367;28;20193;-75
2021/10/31 15:52:30;;;;;;;6.17;5.13;;;;;;;;;;5000478;28;20217;-75
2021/10/31 15:55:34;;;;;;;5.70;4.90;;;;;;;;;;4996321;28;20210;-75
2021/10/31 15:58:38;;;;;;;7.33;5.33;;;;;;;;;;4992807;28;20198;-76
2021/10/31 16:01:56;;;;;;;7.00;5.23;;;;;;;;;;4972814;28;20225;-76
2021/10/31 16:05:00;;;;;;;7.07;5.10;;;;;;;;;;5004929;28;20186;-75
2021/10/31 16:08:05;;;;;;;5.73;4.63;;;;;;;;;;4989782;28;20186;-75
2021/10/31 16:11:10;;;;;;;7.07;5.50;;;;;;;;;;4997930;28;20226;-75
2021/10/31 16:14:15;;;;;;;7.00;5.30;;;;;;;;;;4981838;28;20234;-75
2021/10/31 16:17:19;;;;;;;9.73;5.30;;;;;;;;;;5002541;28;20648;-75
2021/10/31 16:20:23;;;;;;;9.90;5.60;;;;;;;;;;4981031;28;20645;-75
2021/10/31 16:23:27;;;;;;;5.97;5.17;;;;;;;;;;5006988;28;20201;-75
2021/10/31 16:26:32;;;;;;;6.17;5.03;;;;;;;;;;5013050;28;20182;-76
2021/10/31 16:29:36;;;;;;;6.60;4.93;;;;;;;;;;4999370;28;20228;-75
2021/10/31 16:32:41;;;;;;;6.13;5.30;;;;;;;;;;5012008;28;20221;-75
2021/10/31 16:35:46;;;;;;;5.97;5.00;;;;;;;;;;4989983;28;20213;-75
2021/10/31 16:38:50;;;;;;;8.00;4.50;;;;;;;;;;5018783;28;20209;-76
2021/10/31 16:42:00;;;;;;;6.97;5.13;;;;;;;;;;4993463;28;20572;-75
2021/10/31 16:45:05;;;;;;;6.70;5.13;;;;;;;;;;5010640;28;20198;-75
2021/10/31 16:48:09;;;;;;;10.30;5.57;;;;;;;;;;5015215;28;20181;-75
2021/10/31 16:51:14;;;;;;;8.13;5.23;;;;;;;;;;5015263;28;20232;-76
2021/10/31 16:54:18;;;;;;;7.57;5.77;;;;;;;;;;5002893;28;20201;-75
2021/10/31 16:57:22;;;;;;;7.60;5.87;;;;;;;;;;5003107;28;20629;-77
2021/10/31 17:00:26;;;;;;;9.77;6.67;;;;;;;;;;4991710;28;20182;-75
2021/10/31 17:03:30;;;;;;;8.73;6.30;;;;;;;;;;5013974;28;20185;-75
2021/10/31 17:06:34;;;;;;;7.87;5.93;;;;;;;;;;5014703;28;20186;-77
2021/10/31 17:09:38;;;;;;;7.93;6.00;;;;;;;;;;5002511;28;20189;-75
2021/10/31 17:12:42;;;;;;;9.53;6.27;;;;;;;;;;5014787;28;20206;-76
2021/10/31 17:15:46;;;;;;;9.67;6.63;;;;;;;;;;4991939;28;20206;-75
2021/10/31 17:18:52;;;;;;;9.40;6.20;;;;;;;;;;5002319;28;20189;-75
2021/10/31 17:21:55;;;;;;;9.67;6.10;;;;;;;;;;5014853;28;20692;-75
2021/10/31 17:25:00;;;;;;;7.50;6.27;;;;;;;;;;5013566;28;20197;-75
2021/10/31 17:28:04;;;;;;;8.47;6.03;;;;;;;;;;5002419;28;20537;-75
2021/10/31 17:31:08;;;;;;;8.73;6.57;;;;;;;;;;5002071;28;20221;-75
2021/10/31 17:34:13;;;;;;;7.57;6.47;;;;;;;;;;5013583;28;20205;-75
2021/10/31 17:37:17;;;;;;;8.37;6.57;;;;;;;;;;5002257;28;20181;-75
2021/10/31 17:40:21;;;;;;;10.70;6.87;;;;;;;;;;5013705;28;20209;-75
2021/10/31 17:43:25;;;;;;;9.73;7.63;;;;;;;;;;5013986;28;20205;-76
2021/10/31 17:46:29;;;;;;;11.93;8.37;;;;;;;;;;5002207;28;20181;-76
2021/10/31 17:49:36;;;;;;;13.20;8.33;;;;;;;;;;5001970;28;20193;-76
2021/10/31 17:52:45;;;;;;;12.43;8.70;;;;;;;;;;4990780;28;20205;-76
2021/10/31 17:55:50;;;;;;;12.67;9.50;;;;;;;;;;5013957;28;20565;-75
2021/10/31 17:58:55;;;;;;;16.57;10.80;;;;;;;;;;5001586;28;20205;-76
2021/10/31 18:01:59;;;;;;;16.93;10.90;;;;;;;;;;5013689;28;20228;-76
2021/10/31 18:05:05;;;;;;;19.50;12.57;;;;;;;;;;4990686;28;20198;-75
2021/10/31 18:08:09;;;;;;;16.50;11.80;;;;;;;;;;5001954;28;20185;-75
2021/10/31 18:11:13;;;;;;;20.97;13.07;;;;;;;;;;5001626;28;20279;-75
2021/10/31 18:14:17;;;;;;;19.03;11.70;;;;;;;;;;5013595;28;20216;-75
2021/10/31 18:17:25;;;;;;;18.03;12.73;;;;;;;;;;5001844;28;20192;-76
2021/10/31 18:20:29;;;;;;;18.03;13.27;;;;;;;;;;5013893;28;20538;-75